Time;durP1;ratioP1;P1;durP2;ratioP2;P2;SDS_P1;SDS_P2;PMS_P1;PMS_P2;Temp;Humidity;BMP_temperature;BMP_pressure;BME280_temperature;BME280_humidity;BME280_pressure;Samples;Min_cycle;Max_cycle;Signal;HPM_P1;HPM_P2
2021/05/21 00:00:07;;;;;;;2.63;2.42;;;;;;;11.78;66.20;100512.63;6391168;27;20248;-71
2021/05/21 00:03:22;;;;;;;3.17;2.22;;;;;;;11.82;65.66;100511.06;6391205;27;20496;-71
2021/05/21 00:06:26;;;;;;;2.78;2.67;;;;;;;11.71;66.36;100514.63;6391390;27;20188;-71
2021/05/21 00:09:30;;;;;;;2.78;2.58;;;;;;;11.79;65.57;100508.81;6390931;27;20231;-71
2021/05/21 00:12:34;;;;;;;2.33;2.22;;;;;;;11.50;67.03;100520.56;6391221;27;20182;-71
2021/05/21 00:15:38;;;;;;;3.22;2.45;;;;;;;11.38;67.81;100511.44;6391362;27;20182;-71
2021/05/21 00:18:41;;;;;;;2.58;2.47;;;;;;;11.38;68.04;100505.97;6390900;27;20182;-71
2021/05/21 00:21:45;;;;;;;2.30;2.20;;;;;;;11.42;67.84;100507.22;6390210;27;20181;-71
2021/05/21 00:24:50;;;;;;;2.72;2.40;;;;;;;11.44;67.72;100507.81;6389648;27;20456;-71
2021/05/21 00:27:54;;;;;;;2.50;2.40;;;;;;;11.53;67.16;100509.97;6390116;27;20181;-71
2021/05/21 00:30:57;;;;;;;2.60;2.40;;;;;;;11.57;66.85;100499.44;6390964;27;20168;-71
2021/05/21 00:34:01;;;;;;;4.65;2.80;;;;;;;11.57;66.98;100504.91;6389460;27;20521;-71
2021/05/21 00:37:05;;;;;;;2.58;2.38;;;;;;;11.66;66.39;100487.09;6390436;27;20182;-71
2021/05/21 00:40:11;;;;;;;3.08;2.80;;;;;;;11.65;66.90;100490.91;6389268;27;20350;-71
2021/05/21 00:43:16;;;;;;;2.50;2.50;;;;;;;11.65;67.54;100496.38;6371441;27;20217;-71
2021/05/21 00:46:20;;;;;;;2.90;2.75;;;;;;;11.59;67.74;100491.84;6389134;27;20265;-72
2021/05/21 00:49:23;;;;;;;;;;;;;;;11.47;68.49;100494.53;6390789;27;20168;-71
2021/05/21 00:52:27;;;;;;;;;;;;;;;11.63;67.52;100485.66;6389627;27;20102;-72
2021/05/21 00:55:33;;;;;;;3.17;2.95;;;;;;;11.51;68.23;100500.34;6388983;27;19916;-71
2021/05/21 00:58:37;;;;;;;;;;;;;;;11.54;68.21;100487.06;6390096;27;20213;-71
2021/05/21 01:01:40;;;;;;;;;;;;;;;11.59;67.82;100489.09;6389468;27;20214;-71
2021/05/21 01:04:44;;;;;;;;;;;;;;;11.46;68.47;100492.00;6319161;22;19917;-71
2021/05/21 01:07:47;;;;;;;;;;;;;;;11.35;68.76;100476.44;6264264;28;19921;-71
2021/05/21 01:10:51;;;;;;;;;;;;;;;11.39;68.72;100480.34;6263918;28;19923;-71
2021/05/21 01:13:54;;;;;;;;;;;;;;;11.44;69.04;100477.75;6263927;28;19952;-71
2021/05/21 01:16:58;;;;;;;;;;;;;;;11.47;68.92;100485.50;6264417;28;19921;-71
2021/05/21 01:20:02;;;;;;;;;;;;;;;11.40;69.55;100476.56;6262979;28;20220;-71
2021/05/21 01:23:07;;;;;;;;;;;;;;;11.38;69.43;100478.66;6264235;28;19916;-71
2021/05/21 01:26:10;;;;;;;;;;;;;;;11.35;70.34;100485.44;6264174;28;19988;-71
2021/05/21 01:29:14;;;;;;;;;;;;;;;11.29;70.23;100467.25;6263864;28;19917;-71
2021/05/21 01:32:17;;;;;;;;;;;;;;;11.30;70.76;100466.16;6262816;28;20078;-71
2021/05/21 01:35:21;;;;;;;;;;;;;;;11.32;70.82;100469.53;6262652;28;20135;-71
2021/05/21 01:38:29;;;;;;;;;;;;;;;11.22;71.53;100475.50;6264191;28;20000;-71
2021/05/21 01:41:34;;;;;;;;;;;;;;;11.17;71.76;100478.09;6263563;28;19916;-71
2021/05/21 01:44:38;;;;;;;;;;;;;;;11.11;72.20;100479.03;6263758;28;19992;-71
2021/05/21 01:47:41;;;;;;;;;;;;;;;11.12;72.97;100479.84;6262481;28;20200;-71
2021/05/21 01:50:44;;;;;;;;;;;;;;;10.96;73.93;100464.94;6263706;28;19955;-71
2021/05/21 01:53:49;;;;;;;;;;;;;;;10.81;75.10;100455.47;6263738;28;19917;-71
2021/05/21 01:56:52;;;;;;;3.83;2.60;;;;;;;11.00;74.45;100471.59;6261262;28;20192;-71
2021/05/21 01:59:56;;;;;;;2.65;2.65;;;;;;;10.72;75.66;100456.81;6244770;28;20396;-71
2021/05/21 02:03:00;;;;;;;2.60;2.40;;;;;;;10.79;76.12;100469.34;6264537;28;20243;-71
2021/05/21 02:06:04;;;;;;;2.65;2.50;;;;;;;10.86;76.26;100453.69;6306461;28;20490;-72
2021/05/21 02:09:10;;;;;;;3.17;2.88;;;;;;;10.96;75.92;100459.50;6312538;28;20221;-71
2021/05/21 02:12:14;;;;;;;2.28;2.28;;;;;;;10.93;76.23;100462.66;6311918;28;20184;-72
2021/05/21 02:15:18;;;;;;;2.17;1.95;;;;;;;11.01;76.14;100448.72;6311530;28;20215;-71
2021/05/21 02:18:22;;;;;;;2.55;2.40;;;;;;;10.96;77.28;100454.03;6312123;28;20184;-72
2021/05/21 02:21:31;;;;;;;2.50;2.38;;;;;;;11.01;77.20;100456.91;6293868;28;20203;-71
2021/05/21 02:24:37;;;;;;;2.40;2.30;;;;;;;10.89;77.92;100450.53;6312243;28;20239;-72
2021/05/21 02:27:41;;;;;;;2.45;2.35;;;;;;;10.85;79.12;100462.97;6311012;28;20251;-71
2021/05/21 02:30:45;;;;;;;3.30;2.38;;;;;;;10.76;79.06;100450.69;6311116;28;20419;-71
2021/05/21 02:33:48;;;;;;;2.30;2.20;;;;;;;10.90;78.36;100449.47;6311964;28;20237;-71
2021/05/21 02:36:52;;;;;;;2.20;2.10;;;;;;;10.98;78.10;100440.97;6312354;28;20221;-72
2021/05/21 02:39:57;;;;;;;2.40;2.30;;;;;;;11.01;78.41;100439.69;6310778;28;20199;-72
2021/05/21 02:43:00;;;;;;;1.98;1.98;;;;;;;11.10;78.12;100435.56;6310781;28;20222;-71
2021/05/21 02:46:04;;;;;;;2.25;2.15;;;;;;;11.14;78.32;100440.38;6311671;28;20256;-72
2021/05/21 02:49:09;;;;;;;2.08;1.92;;;;;;;11.11;78.70;100435.34;6310708;28;20330;-71
2021/05/21 02:52:12;;;;;;;2.20;2.10;;;;;;;11.04;78.83;100439.22;6311060;28;20215;-72
2021/05/21 02:55:17;;;;;;;2.10;2.10;;;;;;;11.06;79.10;100437.94;6311590;28;20188;-70
2021/05/21 02:58:21;;;;;;;2.20;2.15;;;;;;;11.05;79.39;100424.50;6310661;28;20479;-70
2021/05/21 03:01:24;;;;;;;1.95;1.95;;;;;;;11.13;79.20;100437.84;6311901;28;20205;-70
2021/05/21 03:04:28;;;;;;;1.98;1.98;;;;;;;11.03;79.08;100432.94;6310825;28;20517;-70
2021/05/21 03:07:32;;;;;;;2.10;2.00;;;;;;;11.08;79.05;100427.63;6311750;28;20249;-70
2021/05/21 03:10:36;;;;;;;1.90;1.90;;;;;;;11.05;79.38;100430.81;6314534;28;20285;-70
2021/05/21 03:13:40;;;;;;;1.77;1.70;;;;;;;10.99;79.40;100437.16;6315093;28;20467;-70
2021/05/21 03:16:44;;;;;;;1.50;1.50;;;;;;;11.02;79.58;100439.44;6316279;28;20252;-70
2021/05/21 03:19:47;;;;;;;1.58;1.58;;;;;;;11.06;79.84;100437.94;6315224;28;20237;-71
2021/05/21 03:22:51;;;;;;;1.50;1.50;;;;;;;11.00;79.64;100433.38;6316038;28;20190;-71
2021/05/21 03:25:56;;;;;;;1.58;1.58;;;;;;;10.92;80.84;100435.59;6315434;28;20234;-71
2021/05/21 03:28:59;;;;;;;1.70;1.70;;;;;;;10.82;81.09;100441.59;6315877;28;20191;-70
2021/05/21 03:32:03;;;;;;;1.60;1.60;;;;;;;10.86;81.15;100437.31;6315769;28;20213;-70
2021/05/21 03:35:08;;;;;;;1.77;1.77;;;;;;;10.73;81.40;100428.50;6315629;28;20193;-70
2021/05/21 03:38:13;;;;;;;2.40;1.55;;;;;;;10.76;81.52;100442.50;6315916;28;20206;-70
2021/05/21 03:41:18;;;;;;;1.80;1.70;;;;;;;10.87;81.13;100439.00;6314516;28;20252;-70
2021/05/21 03:44:21;;;;;;;1.33;1.33;;;;;;;10.88;80.04;100440.69;6315574;28;20188;-69
2021/05/21 03:47:25;;;;;;;1.70;1.60;;;;;;;10.95;79.84;100435.97;6314362;28;20250;-70
2021/05/21 03:50:29;;;;;;;1.27;1.27;;;;;;;10.93;79.73;100443.56;6314925;28;20184;-72
2021/05/21 03:53:33;;;;;;;2.50;1.40;;;;;;;11.08;79.13;100441.28;6314716;28;20237;-71
2021/05/21 03:56:37;;;;;;;1.67;1.58;;;;;;;11.05;79.08;100430.81;6315330;28;20199;-71
2021/05/21 03:59:41;;;;;;;3.85;1.50;;;;;;;11.09;79.15;100431.19;6315148;28;20222;-70
2021/05/21 04:02:46;;;;;;;1.48;1.40;;;;;;;11.22;78.74;100431.81;6314010;28;20469;-70
2021/05/21 04:05:49;;;;;;;2.95;1.60;;;;;;;11.37;77.60;100422.41;6288940;28;20208;-71
2021/05/21 04:08:53;;;;;;;3.50;1.75;;;;;;;11.48;77.42;100429.81;6290410;28;20184;-70
2021/05/21 04:11:59;;;;;;;1.20;1.20;;;;;;;11.60;77.09;100433.41;6289473;28;20219;-70
2021/05/21 04:15:04;;;;;;;1.60;1.25;;;;;;;11.43;77.60;100416.81;6289907;28;20188;-71
2021/05/21 04:18:12;;;;;;;1.30;1.30;;;;;;;11.33;78.45;100428.31;6290158;28;20191;-71
2021/05/21 04:21:18;;;;;;;1.42;1.20;;;;;;;11.45;78.21;100424.81;6289651;28;20215;-71
2021/05/21 04:24:22;;;;;;;1.25;1.25;;;;;;;11.47;77.86;100428.13;6289945;28;20193;-72
2021/05/21 04:27:27;;;;;;;1.35;1.30;;;;;;;11.52;77.44;100417.34;6271607;28;20231;-72
2021/05/21 04:30:30;;;;;;;3.30;1.50;;;;;;;11.53;77.68;100410.81;6289712;28;20247;-72
2021/05/21 04:33:34;;;;;;;1.48;1.10;;;;;;;11.74;76.92;100402.94;6288933;28;20184;-72
2021/05/21 04:36:37;;;;;;;3.13;1.13;;;;;;;11.64;77.30;100399.91;6289320;28;20220;-71
2021/05/21 04:39:43;;;;;;;1.55;1.17;;;;;;;11.80;76.78;100401.16;6289299;28;20259;-71
2021/05/21 04:42:47;;;;;;;5.13;1.67;;;;;;;11.82;76.47;100396.28;6288216;28;20259;-71
2021/05/21 04:45:54;;;;;;;3.53;1.23;;;;;;;11.93;76.26;100390.00;6288089;28;20290;-72
2021/05/21 04:48:57;;;;;;;1.20;1.20;;;;;;;11.80;76.63;100390.22;6289553;28;20223;-71
2021/05/21 04:52:03;;;;;;;2.00;1.20;;;;;;;11.70;76.60;100384.50;6271379;28;20271;-72
2021/05/21 04:55:08;;;;;;;1.33;1.20;;;;;;;11.71;75.83;100397.13;6289433;28;20188;-71
2021/05/21 04:58:13;;;;;;;1.15;1.15;;;;;;;11.48;75.98;100391.56;6288057;28;20475;-71
2021/05/21 05:01:17;;;;;;;2.85;1.00;;;;;;;11.51;76.14;100391.06;6287923;28;20391;-71
2021/05/21 05:04:21;;;;;;;2.85;1.20;;;;;;;11.64;76.32;100390.88;6301429;28;20257;-71
2021/05/21 05:07:24;;;;;;;4.47;1.25;;;;;;;11.66;76.14;100373.16;6313771;28;20218;-72
2021/05/21 05:10:29;;;;;;;1.20;1.10;;;;;;;11.59;76.25;100383.38;6313415;28;20190;-71
2021/05/21 05:13:34;;;;;;;1.25;1.10;;;;;;;11.77;75.95;100377.03;6313639;28;20183;-71
2021/05/21 05:16:38;;;;;;;2.45;1.30;;;;;;;11.73;76.79;100370.38;6313648;28;20250;-71
2021/05/21 05:19:42;;;;;;;1.65;1.40;;;;;;;11.90;76.60;100368.59;6313447;28;20215;-71
2021/05/21 05:22:46;;;;;;;1.08;1.08;;;;;;;11.86;76.95;100378.34;6312230;28;20251;-70
2021/05/21 05:25:50;;;;;;;1.15;1.15;;;;;;;11.93;77.08;100370.88;6312282;28;20234;-71
2021/05/21 05:28:54;;;;;;;1.75;1.30;;;;;;;11.99;76.78;100375.41;6312315;28;20229;-70
2021/05/21 05:31:58;;;;;;;1.40;1.30;;;;;;;11.83;76.40;100367.88;6313160;28;20188;-70
2021/05/21 05:35:02;;;;;;;1.60;1.60;;;;;;;11.95;76.16;100371.47;6313317;28;20190;-71
2021/05/21 05:38:06;;;;;;;2.85;1.50;;;;;;;12.07;75.33;100361.34;6311670;28;20372;-70
2021/05/21 05:41:11;;;;;;;4.22;1.60;;;;;;;12.24;74.88;100369.69;6312530;28;20184;-70
2021/05/21 05:44:16;;;;;;;2.85;1.40;;;;;;;12.36;74.78;100374.06;6312565;28;20201;-72
2021/05/21 05:47:20;;;;;;;9.07;1.58;;;;;;;12.49;73.26;100360.13;6311492;28;20541;-72
2021/05/21 05:50:23;;;;;;;1.75;1.65;;;;;;;12.74;73.21;100369.94;6311386;28;20184;-72
2021/05/21 05:53:33;;;;;;;1.50;1.50;;;;;;;12.75;72.47;100366.13;6311923;28;20184;-71
2021/05/21 05:56:37;;;;;;;1.58;1.50;;;;;;;12.91;72.21;100366.22;6312352;28;20198;-72
2021/05/21 05:59:42;;;;;;;7.13;1.50;;;;;;;13.06;72.02;100362.94;6312505;28;20184;-70
2021/05/21 06:02:45;;;;;;;1.48;1.40;;;;;;;12.87;72.24;100355.97;6311975;28;20190;-71
2021/05/21 06:05:49;;;;;;;1.52;1.50;;;;;;;13.16;72.00;100357.69;6286198;28;20219;-71
2021/05/21 06:08:53;;;;;;;2.10;1.50;;;;;;;12.94;72.38;100359.41;6287540;28;20184;-71
2021/05/21 06:11:57;;;;;;;7.50;1.63;;;;;;;13.25;70.59;100350.72;6286045;28;20535;-70
2021/05/21 06:15:02;;;;;;;1.55;1.48;;;;;;;13.50;69.50;100353.09;6287306;28;20230;-71
2021/05/21 06:18:06;;;;;;;3.78;1.55;;;;;;;13.59;69.31;100344.19;6287093;28;20188;-70
2021/05/21 06:21:10;;;;;;;5.40;1.45;;;;;;;13.55;69.06;100354.00;6286070;28;20425;-70
2021/05/21 06:24:16;;;;;;;6.95;1.58;;;;;;;13.77;68.55;100349.44;6287259;28;20264;-71
2021/05/21 06:27:23;;;;;;;2.67;1.50;;;;;;;13.80;68.35;100342.63;6287182;28;20240;-70
2021/05/21 06:30:31;;;;;;;6.13;1.70;;;;;;;13.73;68.55;100337.31;6285781;28;20467;-71
2021/05/21 06:33:35;;;;;;;4.47;1.67;;;;;;;13.92;67.86;100345.28;6285847;28;20184;-70
2021/05/21 06:36:39;;;;;;;7.75;1.42;;;;;;;14.04;67.00;100343.28;6287400;28;20233;-70
2021/05/21 06:39:44;;;;;;;4.05;1.38;;;;;;;14.06;67.06;100341.09;6286098;28;20184;-70
2021/05/21 06:42:48;;;;;;;2.00;1.75;;;;;;;13.93;67.06;100325.00;6286819;28;20185;-71
2021/05/21 06:45:53;;;;;;;3.22;1.50;;;;;;;14.10;67.70;100332.13;6291899;28;20340;-70
2021/05/21 06:48:56;;;;;;;1.48;1.48;;;;;;;14.23;67.10;100337.25;6291754;28;20256;-71
2021/05/21 06:52:00;;;;;;;1.75;1.45;;;;;;;14.27;65.88;100332.94;6291053;28;20184;-71
2021/05/21 06:55:06;;;;;;;4.07;1.63;;;;;;;14.34;65.16;100330.03;6290563;28;20184;-71
2021/05/21 06:58:10;;;;;;;1.50;1.50;;;;;;;14.39;65.11;100330.09;6291435;28;20189;-71
2021/05/21 07:01:15;;;;;;;8.82;2.00;;;;;;;14.45;64.92;100329.09;6273160;28;20204;-71
2021/05/21 07:04:19;;;;;;;2.65;1.70;;;;;;;14.54;64.28;100327.53;6303982;28;20301;-72
2021/05/21 07:07:24;;;;;;;3.30;1.65;;;;;;;14.46;64.39;100335.41;6315101;28;20214;-71
2021/05/21 07:10:29;;;;;;;5.40;1.85;;;;;;;14.49;64.56;100321.16;6316307;28;20188;-72
2021/05/21 07:13:32;;;;;;;5.57;1.60;;;;;;;14.56;64.18;100308.88;6315029;28;20500;-71
2021/05/21 07:16:37;;;;;;;1.80;1.70;;;;;;;14.56;63.55;100308.88;6316318;28;20219;-71
2021/05/21 07:19:41;;;;;;;1.70;1.42;;;;;;;14.60;63.59;100304.56;6315004;28;20440;-71
2021/05/21 07:22:45;;;;;;;2.05;1.77;;;;;;;14.72;63.28;100307.16;6315833;28;20188;-71
2021/05/21 07:25:49;;;;;;;;;;;;;;;14.73;64.76;100309.66;6316346;28;20052;-71
2021/05/21 07:28:53;;;;;;;;;;;;;;;14.79;63.96;100308.63;6316205;28;19916;-71
2021/05/21 07:31:58;;;;;;;2.75;1.80;;;;;;;14.79;63.36;100303.13;6316066;28;19956;-71
2021/05/21 07:35:02;;;;;;;4.13;1.95;;;;;;;14.77;65.16;100291.59;6316034;28;20183;-71
2021/05/21 07:38:08;;;;;;;3.50;1.85;;;;;;;14.68;63.70;100295.88;6314380;28;20203;-70
2021/05/21 07:41:12;;;;;;;9.82;2.17;;;;;;;14.63;64.20;100297.72;6315636;28;20190;-70
2021/05/21 07:44:16;;;;;;;4.82;2.20;;;;;;;14.79;65.27;100297.63;6314572;28;20183;-70
2021/05/21 07:47:20;;;;;;;;;;;;;;;14.91;63.92;100295.59;6314660;28;20381;-70
2021/05/21 07:50:24;;;;;;;;;;;;;;;14.77;64.80;100293.50;6315275;28;19916;-70
2021/05/21 07:53:31;;;;;;;;;;;;;;;14.70;64.11;100299.19;6315942;28;19917;-70
2021/05/21 07:56:34;;;;;;;;;;;;;;;14.63;65.32;100293.06;6314856;28;19923;-71
2021/05/21 07:59:37;;;;;;;;;;;;;;;14.62;64.69;100285.91;6315673;28;19938;-70
2021/05/21 08:02:42;;;;;;;;;;;;;;;14.71;64.09;100287.13;6315410;28;19951;-70
2021/05/21 08:05:47;;;;;;;;;;;;;;;14.71;63.74;100286.31;6314424;28;19931;-71
2021/05/21 08:08:58;;;;;;;;;;;;;;;14.69;64.16;100292.03;6314605;28;20126;-70
2021/05/21 08:12:01;;;;;;;;;;;;;;;14.75;63.26;100293.75;6315539;28;19923;-70
2021/05/21 08:15:05;;;;;;;;;;;;;;;14.81;63.06;100300.97;6315502;28;19954;-70
2021/05/21 08:18:13;;;;;;;;;;;;;;;14.72;63.85;100302.50;6315016;28;19916;-71
2021/05/21 08:21:16;;;;;;;;;;;;;;;14.75;62.30;100293.75;6314742;28;19916;-70
2021/05/21 08:24:20;;;;;;;;;;;;;;;14.78;62.70;100296.00;6314742;28;19917;-70
2021/05/21 08:27:23;;;;;;;;;;;;;;;14.69;63.14;100297.53;6313871;28;20104;-70
2021/05/21 08:30:27;;;;;;;;;;;;;;;14.74;63.72;100288.53;6314353;28;20132;-70
2021/05/21 08:33:32;;;;;;;;;;;;;;;14.79;62.95;100286.66;6315044;28;20249;-70
2021/05/21 08:36:35;;;;;;;;;;;;;;;14.62;62.48;100280.44;6314424;28;19924;-70
2021/05/21 08:39:39;;;;;;;;;;;;;;;14.63;63.37;100287.59;6314007;28;19916;-71
2021/05/21 08:42:43;;;;;;;;;;;;;;;14.73;63.27;100290.44;6314278;28;19959;-70
2021/05/21 08:45:47;;;;;;;;;;;;;;;14.78;63.17;100290.50;6314777;28;20008;-71
2021/05/21 08:48:56;;;;;;;;;;;;;;;14.72;63.58;100286.03;6314718;28;19997;-70
2021/05/21 08:52:03;;;;;;;;;;;;;;;14.77;62.36;100283.34;6295845;28;20203;-70
2021/05/21 08:55:07;;;;;;;;;;;;;;;14.82;62.13;100271.56;6314150;28;19924;-71
2021/05/21 08:58:12;;;;;;;;;;;;;;;14.80;63.26;100282.84;6314641;28;19990;-71
2021/05/21 09:01:19;;;;;;;;;;;;;;;14.80;62.90;100277.34;6313250;28;20175;-71
2021/05/21 09:04:23;;;;;;;;;;;;;;;14.77;61.65;100277.00;6313189;28;20210;-71
2021/05/21 09:07:27;;;;;;;;;;;;;;;14.86;61.85;100276.31;6313205;28;19938;-71
2021/05/21 09:10:32;;;;;;;;;;;;;;;14.56;61.31;100281.44;6314526;28;19916;-71
2021/05/21 09:13:35;;;;;;;;;;;;;;;14.60;62.79;100268.88;6314455;28;19916;-71
2021/05/21 09:16:40;;;;;;;;;;;;;;;14.62;62.21;100263.97;6313863;28;19916;-71
2021/05/21 09:19:47;;;;;;;;;;;;;;;14.70;63.11;100277.22;6313967;28;19916;-71
2021/05/21 09:23:04;;;;;;;;;;;;;;;14.67;63.08;100266.75;6314260;28;19916;-70
2021/05/21 09:26:08;;;;;;;;;;;;;;;14.77;62.87;100277.84;6313008;28;20062;-70
2021/05/21 09:29:14;;;;;;;;;;;;;;;14.77;60.37;100269.63;6312396;28;19983;-71
2021/05/21 09:32:19;;;;;;;;;;;;;;;14.90;61.77;100271.97;6313388;28;19995;-71
2021/05/21 09:35:24;;;;;;;;;;;;;;;15.06;61.12;100253.72;6313115;28;19958;-70
2021/05/21 09:38:30;;;;;;;;;;;;;;;15.08;61.18;100262.50;6312071;28;20195;-71
2021/05/21 09:41:45;;;;;;;;;;;;;;;14.99;59.79;100259.44;6311831;28;20200;-71
2021/05/21 09:44:48;;;;;;;;;;;;;;;15.10;61.63;100259.53;6311726;28;20111;-71
2021/05/21 09:47:56;;;;;;;;;;;;;;;15.10;61.35;100254.03;6312096;28;19917;-71
2021/05/21 09:51:00;;;;;;;;;;;;;;;15.14;60.29;100249.66;6311898;28;19975;-71
2021/05/21 09:54:04;;;;;;;;;;;;;;;15.17;59.60;100249.13;6312129;28;19916;-71
2021/05/21 09:57:11;;;;;;;;;;;;;;;15.24;59.23;100255.25;6312363;28;19916;-71
2021/05/21 10:00:16;;;;;;;7.13;3.13;;;;;;;15.21;60.15;100244.75;6311180;28;20203;-71
2021/05/21 10:03:22;;;;;;;2.15;1.50;;;;;;;15.29;59.02;100238.78;6310645;28;20428;-71
2021/05/21 10:06:30;;;;;;;4.70;2.13;;;;;;;15.35;59.09;100248.75;6311127;28;20479;-72
2021/05/21 10:09:34;;;;;;;3.95;1.65;;;;;;;15.42;58.78;100246.59;6312666;28;20109;-71
2021/05/21 10:12:39;;;;;;;1.65;1.65;;;;;;;15.44;58.45;100244.41;6312176;28;20183;-71
2021/05/21 10:15:42;;;;;;;2.03;1.13;;;;;;;15.44;57.76;100233.41;6310980;28;20474;-71
2021/05/21 10:18:46;;;;;;;;;;;;;;;15.52;57.62;100232.97;6311185;28;20116;-71
2021/05/21 10:21:51;;;;;;;1.27;1.27;;;;;;;15.51;55.85;100234.06;6311412;28;19958;-71
2021/05/21 10:24:59;;;;;;;1.55;1.50;;;;;;;15.63;56.74;100237.44;6312371;28;20219;-72
2021/05/21 10:28:08;;;;;;;2.40;1.50;;;;;;;15.51;56.05;100228.59;6310729;28;20366;-71
2021/05/21 10:31:14;;;;;;;1.20;1.20;;;;;;;15.54;55.72;100222.53;6311502;28;20278;-70
2021/05/21 10:34:20;;;;;;;2.28;1.25;;;;;;;15.62;55.60;100213.78;6311769;28;20229;-72
2021/05/21 10:37:44;;;;;;;1.60;1.23;;;;;;;15.83;54.82;100220.25;6311968;28;20203;-70
2021/05/21 10:41:15;;;;;;;1.30;1.25;;;;;;;15.85;53.38;100213.38;6312138;28;20220;-71
2021/05/21 10:44:37;;;;;;;1.70;1.30;;;;;;;15.91;53.39;100219.75;6292732;28;20518;-71
2021/05/21 10:47:42;;;;;;;2.58;1.23;;;;;;;15.88;53.07;100196.34;6310646;28;20568;-71
2021/05/21 10:50:46;;;;;;;;;;;;;;;15.84;52.81;100203.50;6312281;28;20090;-72
2021/05/21 10:54:20;;;;;;;;;;;;;;;16.04;52.69;100200.84;6312550;28;19924;-72
2021/05/21 10:57:24;;;;;;;;;;;;;;;16.13;52.38;100201.97;6312143;28;19917;-71
2021/05/21 11:00:29;;;;;;;;;;;;;;;16.17;52.15;100197.59;6312346;28;19999;-71
2021/05/21 11:03:54;;;;;;;;;;;;;;;16.15;50.75;100186.00;6310794;28;19917;-72
2021/05/21 11:06:57;;;;;;;;;;;;;;;16.31;51.23;100177.84;6311778;28;20186;-71
2021/05/21 11:10:01;;;;;;;;;;;;;;;16.34;50.08;100171.75;6311803;28;19921;-72
2021/05/21 11:13:10;;;;;;;;;;;;;;;16.42;49.42;100169.31;6311971;28;19916;-71
2021/05/21 11:16:13;;;;;;;;;;;;;;;16.55;49.20;100179.03;6311959;28;19924;-71
2021/05/21 11:19:23;;;;;;;;;;;;;;;16.67;49.01;100161.16;6310991;28;19951;-70
2021/05/21 11:22:32;;;;;;;1.00;1.00;;;;;;;16.67;49.37;100165.81;6311470;28;20238;-70
2021/05/21 11:25:37;;;;;;;;;;;;;;;16.54;48.86;100160.84;6310597;28;20085;-72
2021/05/21 11:28:43;;;;;;;1.85;1.30;;;;;;;16.73;49.52;100167.50;6310730;28;20249;-71
2021/05/21 11:31:50;;;;;;;2.45;1.45;;;;;;;16.87;49.23;100154.84;6314658;28;20190;-72
2021/05/21 11:34:54;;;;;;;1.83;1.33;;;;;;;16.73;49.04;100153.72;6314657;28;20388;-70
2021/05/21 11:38:00;;;;;;;1.30;1.30;;;;;;;16.75;48.76;100146.00;6297548;28;20207;-72
2021/05/21 11:41:06;;;;;;;2.33;1.25;;;;;;;16.76;47.52;100147.66;6314714;28;20490;-72
2021/05/21 11:44:13;;;;;;;2.60;1.25;;;;;;;16.86;47.69;100142.16;6314522;28;20466;-71
2021/05/21 11:47:23;;;;;;;1.40;1.40;;;;;;;16.90;47.55;100148.75;6315605;28;20184;-72
2021/05/21 11:50:30;;;;;;;1.35;1.17;;;;;;;17.04;47.00;100149.88;6315532;28;20107;-71
2021/05/21 11:53:34;;;;;;;6.20;1.33;;;;;;;16.99;46.01;100152.63;6315150;28;20190;-71
2021/05/21 11:56:40;;;;;;;5.75;1.33;;;;;;;17.22;46.25;100152.09;6314405;28;20229;-71
2021/05/21 11:59:44;;;;;;;5.63;1.30;;;;;;;17.13;46.46;100152.91;6315143;28;20183;-71
2021/05/21 12:02:47;;;;;;;4.82;1.50;;;;;;;17.18;46.86;100150.97;6314067;28;20470;-72
2021/05/21 12:05:51;;;;;;;3.97;1.20;;;;;;;17.11;45.89;100144.91;6314056;28;20242;-71
2021/05/21 12:08:55;;;;;;;2.58;1.38;;;;;;;17.10;46.53;100154.28;6314771;28;20219;-72
2021/05/21 12:12:00;;;;;;;7.78;1.30;;;;;;;17.08;47.20;100145.47;6296926;28;20213;-71
2021/05/21 12:15:08;;;;;;;1.75;1.38;;;;;;;17.20;46.59;100148.78;6313776;28;20489;-71
2021/05/21 12:18:14;;;;;;;2.55;1.33;;;;;;;17.32;48.08;100146.56;6314114;28;20187;-71
2021/05/21 12:21:22;;;;;;;2.15;1.40;;;;;;;17.47;48.28;100143.78;6314368;28;20157;-71
2021/05/21 12:24:27;;;;;;;4.47;1.77;;;;;;;17.36;48.47;100142.13;6313804;28;20137;-71
2021/05/21 12:27:32;;;;;;;13.52;2.15;;;;;;;17.53;48.60;100147.38;6314621;28;20083;-70
2021/05/21 12:30:37;;;;;;;11.13;1.50;;;;;;;17.55;48.79;100150.69;6313388;28;20567;-71
2021/05/21 12:33:41;;;;;;;14.57;1.60;;;;;;;17.50;49.06;100151.50;6314375;28;20191;-71
2021/05/21 12:36:51;;;;;;;8.27;1.67;;;;;;;17.55;49.38;100160.88;6313514;28;20199;-71
2021/05/21 12:39:55;;;;;;;11.10;1.58;;;;;;;17.41;50.25;100153.16;6313228;28;20191;-72
2021/05/21 12:43:08;;;;;;;8.45;2.00;;;;;;;17.45;50.06;100162.53;6313831;28;20183;-71
2021/05/21 12:46:14;;;;;;;10.15;1.70;;;;;;;17.37;50.03;100143.78;6313151;28;20184;-71
2021/05/21 12:49:23;;;;;;;6.10;1.48;;;;;;;17.51;49.51;100147.59;6313496;28;20280;-71
2021/05/21 12:52:27;;;;;;;3.80;1.50;;;;;;;17.37;49.52;100143.78;6314735;28;20184;-71
2021/05/21 12:55:32;;;;;;;9.18;1.90;;;;;;;17.71;48.96;100151.47;6313383;28;20435;-71
2021/05/21 12:58:41;;;;;;;6.10;1.50;;;;;;;17.36;48.38;100109.03;6313989;28;20194;-71
2021/05/21 13:01:44;;;;;;;5.97;1.50;;;;;;;17.56;46.65;100146.00;6312721;28;20183;-71
2021/05/21 13:04:58;;;;;;;8.15;1.52;;;;;;;17.59;45.80;100156.47;6313384;28;20227;-71
2021/05/21 13:08:05;;;;;;;6.22;1.50;;;;;;;17.44;45.07;100126.94;6313666;28;20193;-71
2021/05/21 13:11:08;;;;;;;2.58;1.20;;;;;;;17.64;44.98;100153.69;6312239;28;20474;-70
2021/05/21 13:14:13;;;;;;;3.55;1.10;;;;;;;17.69;44.30;100156.44;6313190;28;20191;-70
2021/05/21 13:17:17;;;;;;;0.90;0.90;;;;;;;17.59;40.98;100148.19;6313229;28;20191;-71
2021/05/21 13:20:23;;;;;;;1.65;0.82;;;;;;;17.50;40.40;100145.13;6294176;28;20497;-71
2021/05/21 13:23:27;;;;;;;2.00;1.20;;;;;;;17.69;41.29;100150.94;6312983;28;20190;-71
2021/05/21 13:26:44;;;;;;;4.28;1.25;;;;;;;17.54;39.78;100142.69;6313170;28;20183;-71
2021/05/21 13:29:49;;;;;;;1.70;1.08;;;;;;;17.69;40.16;100150.94;6312636;28;20257;-71
2021/05/21 13:32:53;;;;;;;2.65;1.05;;;;;;;18.04;41.26;100148.88;6311559;28;20505;-70
2021/05/21 13:35:57;;;;;;;4.75;1.40;;;;;;;19.63;39.33;100131.69;6312330;28;20190;-70
2021/05/21 13:39:01;;;;;;;7.50;1.40;;;;;;;20.45;38.66;100117.38;6312904;28;20243;-70
2021/05/21 13:42:08;;;;;;;14.55;1.58;;;;;;;20.44;37.37;100121.25;6311904;28;20427;-70
2021/05/21 13:45:14;;;;;;;1.77;1.20;;;;;;;19.79;37.65;100117.41;6311542;28;20384;-72
2021/05/21 13:48:18;;;;;;;2.90;1.10;;;;;;;19.21;40.06;100115.75;6312493;28;20183;-74
2021/05/21 13:51:22;;;;;;;2.45;1.20;;;;;;;19.06;40.28;100110.38;6312524;28;20252;-72
2021/05/21 13:54:28;;;;;;;1.48;1.27;;;;;;;18.75;41.36;100115.31;6310729;28;20414;-72
2021/05/21 13:57:32;;;;;;;1.17;1.17;;;;;;;18.60;39.77;100105.22;6312630;28;20215;-72
2021/05/21 14:00:36;;;;;;;1.45;1.35;;;;;;;18.86;39.91;100116.06;6312467;28;20195;-72
2021/05/21 14:03:40;;;;;;;11.32;1.50;;;;;;;18.90;39.87;100092.28;6311818;28;20227;-72
2021/05/21 14:06:44;;;;;;;6.82;1.40;;;;;;;18.62;40.52;100105.75;6310814;28;20528;-71
2021/05/21 14:09:48;;;;;;;8.48;1.40;;;;;;;18.88;39.97;100097.25;6310794;28;20239;-71
2021/05/21 14:12:52;;;;;;;3.17;1.13;;;;;;;18.96;39.57;100100.22;6311670;28;20250;-72
2021/05/21 14:15:57;;;;;;;1.63;1.30;;;;;;;19.25;39.79;100097.47;6311877;28;20190;-73
2021/05/21 14:19:01;;;;;;;1.83;1.42;;;;;;;19.33;40.34;100099.63;6312048;28;20251;-72
2021/05/21 14:22:05;;;;;;;1.30;1.30;;;;;;;19.38;40.52;100102.34;6312005;28;20221;-71
2021/05/21 14:25:14;;;;;;;3.97;1.83;;;;;;;19.26;40.18;100099.09;6311018;28;20364;-71
2021/05/21 14:28:20;;;;;;;4.80;1.40;;;;;;;19.06;39.38;100094.63;6310858;28;20379;-71
2021/05/21 14:31:25;;;;;;;5.97;1.55;;;;;;;19.18;40.40;100102.53;6310815;28;20513;-71
2021/05/21 14:34:30;;;;;;;1.15;1.00;;;;;;;19.02;39.87;100103.78;6311697;28;20191;-71
2021/05/21 14:37:34;;;;;;;4.38;1.30;;;;;;;18.80;41.07;100112.53;6293770;28;20199;-72
2021/05/21 14:40:38;;;;;;;2.20;1.33;;;;;;;18.70;43.00;100113.44;6310466;28;20561;-72
2021/05/21 14:43:42;;;;;;;4.50;1.60;;;;;;;18.50;44.97;100119.09;6310600;28;20474;-72